Estación Meteorológica Peña el Pijo (Robertgarden) [ 12/09/19 16:48:47 CET ]

Fecha Hora Presion(HPa) Temp (°C) Humedad % Rocio (°C) Viento ( m/s) Direccion Lluvia 1Hora(mm) Lluvia 24H(mm) LLuvia Total(mm)
2019-Oct-05 01:01:34 1010.300 10.9 64 4.3         490.25
2019-Oct-05 02:01:52 1010.000 9.8 65 3.5         490.25
2019-Oct-05 03:01:47 1010.100 10.4 65 4.1         490.25
2019-Oct-05 04:01:47 1009.800 10.9 63 4.1         490.25
2019-Oct-05 05:10:04 1009.700 10.1 65 3.8         490.25
2019-Oct-05 06:06:14 1009.600 10.3 65 4.0         490.25
2019-Oct-05 07:01:36 1009.500 9.0 70 3.8         490.25
2019-Oct-05 08:01:35 1009.500 8.4 72 3.6         490.25
2019-Oct-05 09:01:41 1009.800 7.8 75 3.6         490.25
2019-Oct-05 10:01:31 1010.200 14.7 65 8.2         490.25
2019-Oct-05 11:01:43 1010.000 19.9 51 9.5         490.25
2019-Oct-05 12:01:38 1009.800 24.5 40 10.0         490.25
2019-Oct-05 13:01:35 1009.800 27.6 33 9.8         490.25
2019-Oct-05 14:01:59 1009.200 31.8 25 9.1         490.25
2019-Oct-05 15:01:44 1008.700 31.0 24 7.9         490.25
2019-Oct-05 16:01:45 1008.400 31.8 24 8.5         490.25
2019-Oct-05 17:01:47 1008.300 30.6 26 8.7         490.25
2019-Oct-05 18:01:42 1008.400 29.3 27 8.2         490.25
2019-Oct-05 19:01:40 1009.300 25.2 32 7.3         490.25
2019-Oct-05 20:01:42 1009.700 19.3 48 8.0         490.25
2019-Oct-05 21:02:03 1010.300 14.9 59 6.9         490.25
2019-Oct-05 22:01:36 1010.900 13.1 62 5.9         490.25
2019-Oct-05 23:01:47 1011.500 11.8 64 5.2         490.25

Temperatura Máxima:31°    Temperatura Mínima:
Presión Máxima:1011.500 Hpa    Presión Mínima:1008.300 Hpa


Volver